createdAt,value
2023-02-21T00:00:09.406Z,1.60
2023-02-21T00:03:20.679Z,1.20
2023-02-21T00:06:10.098Z,1.50
2023-02-21T00:08:58.193Z,1.42
2023-02-21T00:11:46.300Z,1.30
2023-02-21T00:14:34.464Z,1.33
2023-02-21T00:17:22.741Z,1.63
2023-02-21T00:20:10.783Z,1.25
2023-02-21T00:23:00.124Z,1.70
2023-02-21T00:25:48.603Z,1.30
2023-02-21T00:28:36.639Z,1.33
2023-02-21T00:31:26.028Z,1.20
2023-02-21T00:34:14.120Z,1.50
2023-02-21T00:37:02.214Z,1.48
2023-02-21T00:39:52.351Z,1.00
2023-02-21T00:42:41.091Z,1.75
2023-02-21T00:45:29.840Z,1.27
2023-02-21T00:48:20.166Z,1.55
2023-02-21T00:51:08.543Z,1.33
2023-02-21T00:53:56.569Z,2.38
2023-02-21T00:56:46.183Z,1.77
2023-02-21T00:59:34.653Z,1.60
2023-02-21T01:02:22.836Z,1.30
2023-02-21T01:05:14.082Z,2.15
2023-02-21T01:08:02.148Z,1.40
2023-02-21T01:10:50.364Z,1.23
2023-02-21T01:13:39.810Z,1.45
2023-02-21T01:16:27.944Z,1.35
2023-02-21T01:19:16.236Z,1.73
2023-02-21T01:22:04.294Z,1.70
2023-02-21T01:24:52.094Z,1.65
2023-02-21T01:27:40.515Z,1.30
2023-02-21T01:30:32.027Z,2.03
2023-02-21T01:33:20.725Z,1.77
2023-02-21T01:36:08.823Z,1.48
2023-02-21T01:38:56.869Z,1.92
2023-02-21T01:41:45.367Z,1.60
2023-02-21T01:44:57.050Z,1.30
2023-02-21T01:47:46.605Z,2.30
2023-02-21T01:50:39.818Z,2.08
2023-02-21T01:53:31.592Z,1.50
2023-02-21T01:56:21.189Z,1.38
2023-02-21T01:59:12.655Z,1.60
2023-02-21T02:02:09.513Z,2.15
2023-02-21T02:04:59.436Z,2.05
2023-02-21T02:07:47.767Z,2.88
2023-02-21T02:10:35.664Z,2.60
2023-02-21T02:13:37.342Z,2.97
2023-02-21T02:16:19.295Z,2.85
2023-02-21T02:19:42.020Z,2.63
2023-02-21T02:22:40.210Z,2.50
2023-02-21T02:25:27.317Z,3.15
2023-02-21T02:28:24.070Z,2.50
2023-02-21T02:31:43.337Z,1.92
2023-02-21T02:34:50.946Z,2.42
2023-02-21T02:37:29.232Z,2.10
2023-02-21T02:40:08.541Z,2.50
2023-02-21T02:42:50.457Z,2.90
2023-02-21T02:45:30.368Z,2.28
2023-02-21T02:48:06.543Z,1.27
2023-02-21T02:50:40.792Z,2.15
2023-02-21T02:53:12.136Z,2.08
2023-02-21T02:55:50.276Z,2.47
2023-02-21T02:58:23.855Z,2.75
2023-02-21T03:01:09.222Z,2.08
2023-02-21T03:03:59.545Z,1.73
2023-02-21T03:06:44.225Z,1.75
2023-02-21T03:09:19.955Z,2.08
2023-02-21T03:12:02.736Z,1.20
2023-02-21T03:14:40.291Z,1.05
2023-02-21T03:17:16.404Z,1.90
2023-02-21T03:19:52.073Z,1.60
2023-02-21T03:22:30.830Z,1.17
2023-02-21T03:25:05.099Z,1.65
2023-02-21T03:27:37.454Z,1.05
2023-02-21T03:30:22.451Z,1.77
2023-02-21T03:32:56.655Z,1.63
2023-02-21T03:35:31.602Z,1.75
2023-02-21T03:38:04.427Z,1.38
2023-02-21T03:40:36.546Z,1.70
2023-02-21T03:43:08.470Z,1.90
2023-02-21T03:45:51.573Z,1.23
2023-02-21T03:48:31.367Z,2.10
2023-02-21T03:51:10.255Z,1.30
2023-02-21T03:53:42.599Z,1.20
2023-02-21T03:56:15.699Z,1.50
2023-02-21T03:59:05.586Z,1.75
2023-02-21T04:01:36.949Z,1.98
2023-02-21T04:04:08.688Z,1.48
2023-02-21T04:06:41.179Z,1.90
2023-02-21T04:09:13.629Z,1.20
2023-02-21T04:11:45.905Z,1.67
2023-02-21T04:14:17.048Z,1.35
2023-02-21T04:16:48.312Z,1.88
2023-02-21T04:19:19.055Z,2.40
2023-02-21T04:21:51.189Z,1.70
2023-02-21T04:24:23.387Z,1.75
2023-02-21T04:26:55.749Z,2.00
2023-02-21T04:29:27.544Z,1.10
2023-02-21T04:31:59.038Z,1.25
2023-02-21T04:34:30.097Z,1.83
2023-02-21T04:37:01.798Z,1.63
2023-02-21T04:39:34.318Z,1.90
2023-02-21T04:42:05.785Z,1.97
2023-02-21T04:44:36.691Z,2.00
2023-02-21T04:47:07.874Z,2.65
2023-02-21T04:49:38.696Z,1.85
2023-02-21T04:52:10.455Z,1.25
2023-02-21T04:54:43.452Z,1.55
2023-02-21T04:57:14.604Z,2.43
2023-02-21T04:59:45.368Z,2.42
2023-02-21T05:02:16.365Z,2.90
2023-02-21T05:04:47.145Z,2.58
2023-02-21T05:07:18.138Z,2.15
2023-02-21T05:09:50.296Z,3.67
2023-02-21T05:12:21.825Z,2.72
2023-02-21T05:14:53.217Z,3.20
2023-02-21T05:17:25.609Z,3.35
2023-02-21T05:19:56.549Z,2.35
2023-02-21T05:22:27.683Z,4.40
2023-02-21T05:25:01.597Z,3.05
2023-02-21T05:27:33.244Z,3.28
2023-02-21T05:30:04.263Z,3.53
2023-02-21T05:32:35.645Z,3.53
2023-02-21T05:35:08.463Z,4.03
2023-02-21T05:37:39.592Z,4.00
2023-02-21T05:40:14.831Z,3.15
2023-02-21T05:42:46.266Z,3.13
2023-02-21T05:45:16.915Z,3.13
2023-02-21T05:47:48.751Z,3.85
2023-02-21T05:50:19.592Z,3.78
2023-02-21T05:52:50.565Z,2.90
2023-02-21T05:55:22.949Z,2.63
2023-02-21T05:57:55.483Z,2.92
2023-02-21T06:00:28.929Z,5.07
2023-02-21T06:03:00.326Z,2.95
2023-02-21T06:05:31.780Z,3.05
2023-02-21T06:08:03.456Z,2.72
2023-02-21T06:10:35.662Z,2.78
2023-02-21T06:13:06.680Z,2.97
2023-02-21T06:15:37.580Z,2.95
2023-02-21T06:18:11.970Z,2.08
2023-02-21T06:20:42.882Z,2.22
2023-02-21T06:23:13.956Z,2.60
2023-02-21T06:25:46.179Z,1.95
2023-02-21T06:28:18.365Z,1.87
2023-02-21T06:30:49.269Z,2.22
2023-02-21T06:33:20.482Z,1.98
2023-02-21T06:35:51.039Z,1.55
2023-02-21T06:38:22.230Z,2.60
2023-02-21T06:40:54.356Z,1.95
2023-02-21T06:43:25.495Z,2.30
2023-02-21T06:45:56.325Z,2.55
2023-02-21T06:48:28.380Z,2.38
2023-02-21T06:51:01.197Z,2.78
2023-02-21T06:53:32.782Z,2.35
2023-02-21T06:56:05.121Z,1.90
2023-02-21T06:58:37.078Z,2.53
2023-02-21T07:01:08.261Z,1.67
2023-02-21T07:03:44.218Z,2.95
2023-02-21T07:06:18.181Z,1.20
2023-02-21T07:08:49.465Z,1.92
2023-02-21T07:11:22.956Z,2.67
2023-02-21T07:13:56.867Z,1.92
2023-02-21T07:16:28.607Z,2.38
2023-02-21T07:19:00.206Z,2.15
2023-02-21T07:21:32.779Z,2.13
2023-02-21T07:24:04.803Z,1.65
2023-02-21T07:26:38.053Z,2.90
2023-02-21T07:29:09.306Z,2.25
2023-02-21T07:31:41.025Z,2.05
2023-02-21T07:34:13.598Z,1.75
2023-02-21T07:36:44.549Z,2.67
2023-02-21T07:39:16.144Z,2.70
2023-02-21T07:41:48.435Z,2.70
2023-02-21T07:44:27.898Z,2.40
2023-02-21T07:46:59.313Z,1.60
2023-02-21T07:49:30.798Z,2.28
2023-02-21T07:52:01.596Z,2.47
2023-02-21T07:54:32.819Z,3.38
2023-02-21T07:57:05.126Z,4.00
2023-02-21T07:59:36.677Z,2.00
2023-02-21T08:02:07.590Z,2.15
2023-02-21T08:04:38.859Z,2.22
2023-02-21T08:07:11.558Z,1.48
2023-02-21T08:09:43.920Z,2.05
2023-02-21T08:12:16.193Z,3.05
2023-02-21T08:14:47.203Z,2.27
2023-02-21T08:17:17.946Z,3.13
2023-02-21T08:19:49.072Z,2.33
2023-02-21T08:22:20.374Z,2.53
2023-02-21T08:24:52.327Z,2.58
2023-02-21T08:27:24.351Z,3.25
2023-02-21T08:29:55.467Z,2.10
2023-02-21T08:32:26.709Z,2.55
2023-02-21T08:34:58.022Z,1.48
2023-02-21T08:37:33.068Z,3.13
2023-02-21T08:40:06.306Z,2.33
2023-02-21T08:42:38.505Z,2.13
2023-02-21T08:45:11.066Z,2.70
2023-02-21T08:47:41.885Z,2.97
2023-02-21T08:50:13.176Z,2.13
2023-02-21T08:52:43.867Z,2.60
2023-02-21T08:55:15.000Z,2.28
2023-02-21T08:57:47.386Z,1.67
2023-02-21T09:00:20.020Z,2.10
2023-02-21T09:02:52.071Z,2.17
2023-02-21T09:05:28.181Z,1.60
2023-02-21T09:08:02.203Z,1.30
2023-02-21T09:10:35.312Z,1.30
2023-02-21T09:13:07.507Z,0.80
2023-02-21T09:15:38.593Z,1.50
2023-02-21T09:18:09.528Z,1.80
2023-02-21T09:20:42.431Z,1.25
2023-02-21T09:23:15.530Z,1.35
2023-02-21T09:28:18.929Z,0.98
2023-02-21T09:30:51.059Z,1.67
2023-02-21T09:33:22.599Z,1.60
2023-02-21T09:35:55.126Z,1.73
2023-02-21T09:38:25.789Z,1.67
2023-02-21T09:41:02.500Z,1.20
2023-02-21T09:43:39.023Z,0.63
2023-02-21T09:46:16.159Z,1.20
2023-02-21T09:48:48.635Z,1.30
2023-02-21T09:51:19.756Z,1.23
2023-02-21T09:53:51.679Z,1.20
2023-02-21T09:56:29.561Z,1.30
2023-02-21T09:59:01.880Z,1.48
2023-02-21T10:01:55.222Z,1.17
2023-02-21T10:04:42.782Z,0.75
2023-02-21T10:07:19.511Z,0.68
2023-02-21T10:10:00.512Z,0.82
2023-02-21T10:12:37.053Z,1.30
2023-02-21T10:15:29.426Z,1.10
2023-02-21T10:18:06.534Z,1.23
2023-02-21T10:20:43.856Z,1.48
2023-02-21T10:23:20.788Z,1.13
2023-02-21T10:25:55.514Z,0.90
2023-02-21T10:28:27.841Z,1.05
2023-02-21T10:31:04.480Z,0.93
2023-02-21T10:33:40.658Z,1.33
2023-02-21T10:36:18.350Z,0.98
2023-02-21T10:38:58.350Z,0.70
2023-02-21T10:41:32.491Z,1.00
2023-02-21T10:44:11.846Z,0.98
2023-02-21T10:46:51.166Z,1.08
2023-02-21T10:49:29.056Z,0.85
2023-02-21T10:52:13.672Z,1.10
2023-02-21T10:55:03.804Z,0.60
2023-02-21T10:57:40.407Z,0.63
2023-02-21T11:00:22.098Z,1.15
2023-02-21T11:02:58.335Z,1.17
2023-02-21T11:12:31.919Z,1.10
2023-02-21T11:15:18.458Z,2.63
2023-02-21T11:18:19.831Z,1.00
2023-02-21T11:20:51.003Z,1.15
2023-02-21T11:23:28.448Z,0.77
2023-02-21T11:26:08.505Z,1.00
2023-02-21T11:28:43.603Z,1.30
2023-02-21T11:31:24.838Z,1.10
2023-02-21T11:34:01.815Z,1.52
2023-02-21T11:36:35.601Z,1.45
2023-02-21T11:41:51.766Z,1.30
2023-02-21T11:44:30.379Z,1.50
2023-02-21T11:47:14.188Z,1.50
2023-02-21T11:49:56.130Z,1.60
2023-02-21T11:52:34.435Z,1.80
2023-02-21T11:55:13.868Z,1.23
2023-02-21T11:57:56.291Z,2.03
2023-02-21T12:00:39.951Z,1.52
2023-02-21T12:03:41.212Z,0.90
2023-02-21T12:06:23.288Z,1.13
2023-02-21T12:09:01.016Z,1.55
2023-02-21T12:11:50.635Z,0.88
2023-02-21T12:14:55.349Z,0.90
2023-02-21T12:18:06.946Z,0.93
2023-02-21T12:21:18.342Z,5.45
2023-02-21T12:24:01.008Z,0.52
2023-02-21T12:26:51.464Z,0.80
2023-02-21T12:29:41.180Z,0.70
2023-02-21T12:32:45.836Z,0.73
2023-02-21T12:36:16.741Z,1.10
2023-02-21T12:39:12.110Z,0.95
2023-02-21T12:42:33.782Z,0.85
2023-02-21T12:45:21.403Z,0.70
2023-02-21T12:48:01.282Z,0.45
2023-02-21T12:50:38.260Z,0.77
2023-02-21T12:53:17.080Z,0.90
2023-02-21T12:55:54.344Z,0.43
2023-02-21T12:58:33.474Z,0.70
2023-02-21T13:01:12.119Z,0.47
2023-02-21T13:03:56.802Z,0.68
2023-02-21T13:06:32.393Z,0.47
2023-02-21T13:09:17.139Z,0.75
2023-02-21T13:11:59.465Z,0.43
2023-02-21T13:14:37.492Z,1.10
2023-02-21T13:17:16.362Z,0.50
2023-02-21T13:19:51.734Z,1.33
2023-02-21T13:23:35.790Z,0.70
2023-02-21T13:26:38.352Z,0.40
2023-02-21T13:29:21.051Z,0.55
2023-02-21T13:32:00.916Z,0.73
2023-02-21T13:34:38.416Z,0.80
2023-02-21T13:37:17.471Z,0.40
2023-02-21T13:39:54.258Z,0.63
2023-02-21T13:42:28.910Z,0.95
2023-02-21T13:45:17.824Z,0.52
2023-02-21T13:48:31.066Z,0.88
2023-02-21T13:51:02.604Z,0.93
2023-02-21T13:53:55.063Z,0.68
2023-02-21T13:56:43.785Z,0.35
2023-02-21T13:59:37.044Z,0.65
2023-02-21T14:02:31.239Z,0.93
2023-02-21T14:05:08.524Z,0.70
2023-02-21T14:08:02.953Z,0.75
2023-02-21T14:10:42.575Z,0.50
2023-02-21T14:13:33.445Z,0.60
2023-02-21T14:16:20.650Z,2.35
2023-02-21T14:18:58.721Z,0.60
2023-02-21T14:21:36.207Z,0.32
2023-02-21T14:24:16.851Z,0.65
2023-02-21T14:26:52.725Z,0.30
2023-02-21T14:29:41.998Z,0.70
2023-02-21T14:32:36.634Z,0.60
2023-02-21T14:35:30.716Z,0.60
2023-02-21T14:38:04.983Z,0.50
2023-02-21T14:40:54.820Z,0.50
2023-02-21T14:43:51.463Z,0.98
2023-02-21T14:47:25.790Z,0.70
2023-02-21T14:50:27.002Z,0.52
2023-02-21T14:53:40.833Z,1.02
2023-02-21T14:56:48.675Z,0.52
2023-02-21T14:59:43.865Z,0.50
2023-02-21T15:02:29.594Z,0.70
2023-02-21T15:05:13.893Z,0.88
2023-02-21T15:08:01.580Z,0.73
2023-02-21T15:10:34.882Z,1.25
2023-02-21T15:13:07.172Z,0.85
2023-02-21T15:15:44.149Z,1.00
2023-02-21T15:18:27.736Z,0.38
2023-02-21T15:21:17.073Z,0.85
2023-02-21T15:24:00.887Z,1.25
2023-02-21T15:26:34.681Z,1.60
2023-02-21T15:29:08.414Z,1.33
2023-02-21T15:31:43.828Z,1.65
2023-02-21T15:34:21.530Z,1.13
2023-02-21T15:37:16.269Z,1.63
2023-02-21T15:39:55.493Z,1.90
2023-02-21T15:42:29.309Z,1.73
2023-02-21T15:47:36.604Z,1.83
2023-02-21T15:50:13.614Z,2.25
2023-02-21T15:52:48.992Z,2.50
2023-02-21T15:55:32.302Z,2.55
2023-02-21T15:58:16.906Z,2.22
2023-02-21T16:00:50.451Z,2.13
2023-02-21T16:03:36.397Z,3.17
2023-02-21T16:06:25.162Z,2.90
2023-02-21T16:09:09.405Z,3.28
2023-02-21T16:14:30.737Z,2.65
2023-02-21T16:17:21.534Z,3.67
2023-02-21T16:19:56.308Z,2.75
2023-02-21T16:22:43.140Z,2.65
2023-02-21T16:25:26.245Z,1.85
2023-02-21T16:28:00.349Z,3.83
2023-02-21T16:30:35.610Z,3.95
2023-02-21T16:33:07.894Z,2.80
2023-02-21T16:35:38.974Z,1.90
2023-02-21T16:38:14.811Z,3.50
2023-02-21T16:40:46.070Z,4.13
2023-02-21T16:43:22.536Z,4.70
2023-02-21T16:45:56.828Z,3.42
2023-02-21T16:48:33.366Z,6.63
2023-02-21T16:51:09.383Z,7.18
2023-02-21T16:53:40.289Z,5.70
2023-02-21T16:56:11.545Z,6.05
2023-02-21T16:58:48.498Z,7.50
2023-02-21T17:01:26.853Z,7.00
2023-02-21T17:03:57.760Z,6.80
2023-02-21T17:06:30.179Z,6.43
2023-02-21T17:09:01.477Z,8.25
2023-02-21T17:11:32.720Z,4.60
2023-02-21T17:14:05.010Z,3.45
2023-02-21T17:16:45.831Z,4.03
2023-02-21T17:19:19.856Z,4.40
2023-02-21T17:21:53.635Z,4.60
2023-02-21T17:24:24.554Z,4.80
2023-02-21T17:26:56.246Z,5.35
2023-02-21T17:29:28.600Z,4.03
2023-02-21T17:32:03.037Z,4.63
2023-02-21T17:34:34.973Z,3.70
2023-02-21T17:37:06.602Z,4.72
2023-02-21T17:39:37.635Z,4.05
2023-02-21T17:42:09.718Z,4.45
2023-02-21T17:44:47.398Z,4.05
2023-02-21T17:47:21.202Z,4.45
2023-02-21T17:52:26.003Z,4.15
2023-02-21T17:54:56.741Z,4.00
2023-02-21T17:57:27.796Z,4.05
2023-02-21T18:00:00.897Z,3.92
2023-02-21T18:05:02.500Z,5.15
2023-02-21T18:07:34.921Z,4.18
2023-02-21T18:10:07.350Z,3.67
2023-02-21T18:12:38.339Z,4.97
2023-02-21T18:15:11.552Z,4.55
2023-02-21T18:17:42.579Z,4.88
2023-02-21T18:20:15.649Z,5.13
2023-02-21T18:25:21.449Z,5.65
2023-02-21T18:27:53.039Z,5.45
2023-02-21T18:30:25.470Z,5.20
2023-02-21T18:32:56.738Z,5.20
2023-02-21T18:35:27.485Z,5.28
2023-02-21T18:38:01.272Z,6.68
2023-02-21T18:40:44.756Z,5.85
2023-02-21T18:43:22.551Z,5.53
2023-02-21T18:45:56.954Z,6.95
2023-02-21T18:48:28.785Z,8.13
2023-02-21T18:50:59.725Z,6.47
2023-02-21T18:53:30.908Z,7.25
2023-02-21T18:56:01.581Z,5.88
2023-02-21T18:58:32.862Z,5.53
2023-02-21T19:01:05.380Z,5.60
2023-02-21T19:03:36.579Z,4.55
2023-02-21T19:06:09.799Z,5.50
2023-02-21T19:08:41.164Z,7.20
2023-02-21T19:11:13.203Z,6.43
2023-02-21T19:13:47.485Z,6.37
2023-02-21T19:16:20.920Z,8.30
2023-02-21T19:18:55.297Z,5.30
2023-02-21T19:21:27.091Z,6.72
2023-02-21T19:23:58.615Z,7.18
2023-02-21T19:26:31.205Z,6.03
2023-02-21T19:29:02.646Z,5.68
2023-02-21T19:31:35.331Z,6.65
2023-02-21T19:34:06.859Z,6.88
2023-02-21T19:36:38.986Z,6.35
2023-02-21T19:39:11.808Z,5.85
2023-02-21T19:41:42.700Z,6.00
2023-02-21T19:44:13.922Z,6.32
2023-02-21T19:46:46.527Z,7.05
2023-02-21T19:49:18.995Z,8.07
2023-02-21T19:51:51.976Z,7.38
2023-02-21T19:56:55.599Z,7.35
2023-02-21T19:59:27.121Z,9.80
2023-02-21T20:02:00.552Z,10.30
2023-02-21T20:04:31.915Z,10.40
2023-02-21T20:07:02.671Z,7.40
2023-02-21T20:09:33.833Z,7.47
2023-02-21T20:12:04.970Z,8.23
2023-02-21T20:14:36.338Z,6.88
2023-02-21T20:17:08.779Z,6.47
2023-02-21T20:19:40.123Z,6.00
2023-02-21T20:22:11.237Z,6.68
2023-02-21T20:24:45.903Z,5.97
2023-02-21T20:27:17.474Z,6.20
2023-02-21T20:29:49.106Z,5.18
2023-02-21T20:32:21.763Z,5.07
2023-02-21T20:34:54.830Z,6.10
2023-02-21T20:37:26.779Z,5.97
2023-02-21T20:39:57.737Z,7.82
2023-02-21T20:42:29.615Z,6.75
2023-02-21T20:45:02.256Z,6.65
2023-02-21T20:47:35.153Z,6.68
2023-02-21T20:50:08.238Z,6.55
2023-02-21T20:52:41.310Z,6.20
2023-02-21T20:55:12.662Z,6.43
2023-02-21T20:57:43.743Z,6.53
2023-02-21T21:00:16.863Z,6.22
2023-02-21T21:02:49.420Z,6.27
2023-02-21T21:05:21.320Z,6.47
2023-02-21T21:07:55.705Z,7.90
2023-02-21T21:10:27.254Z,7.55
2023-02-21T21:12:58.918Z,8.65
2023-02-21T21:15:30.404Z,8.75
2023-02-21T21:18:02.457Z,9.73
2023-02-21T21:20:35.484Z,9.02
2023-02-21T21:23:07.200Z,9.37
2023-02-21T21:25:38.515Z,8.82
2023-02-21T21:28:09.502Z,8.27
2023-02-21T21:30:42.856Z,7.50
2023-02-21T21:33:19.558Z,8.55
2023-02-21T21:35:50.781Z,6.95
2023-02-21T21:38:25.992Z,8.05
2023-02-21T21:40:58.130Z,9.45
2023-02-21T21:43:29.296Z,7.80
2023-02-21T21:46:00.617Z,6.75
2023-02-21T21:48:34.287Z,7.03
2023-02-21T21:51:09.542Z,7.60
2023-02-21T21:56:13.232Z,6.65
2023-02-21T21:58:45.688Z,8.10
2023-02-21T22:01:17.002Z,7.63
2023-02-21T22:03:49.917Z,9.63
2023-02-21T22:06:21.397Z,7.60
2023-02-21T22:08:54.515Z,7.88
2023-02-21T22:13:56.176Z,6.35
2023-02-21T22:16:27.572Z,6.43
2023-02-21T22:18:59.882Z,7.85
2023-02-21T22:21:31.920Z,9.03
2023-02-21T22:24:03.651Z,11.60
2023-02-21T22:26:34.939Z,9.93
2023-02-21T22:29:06.829Z,10.55
2023-02-21T22:31:38.003Z,11.70
2023-02-21T22:34:10.638Z,11.73
2023-02-21T22:36:47.762Z,10.57
2023-02-21T22:39:20.149Z,10.82
2023-02-21T22:41:52.434Z,9.90
2023-02-21T22:44:25.267Z,9.85
2023-02-21T22:46:59.963Z,10.00
2023-02-21T22:49:32.875Z,10.32
2023-02-21T22:54:35.176Z,9.82
2023-02-21T22:57:07.407Z,8.98
2023-02-21T22:59:38.588Z,10.07
2023-02-21T23:02:09.596Z,9.05
2023-02-21T23:04:41.799Z,8.60
2023-02-21T23:07:12.799Z,8.57
2023-02-21T23:09:43.290Z,9.90
2023-02-21T23:12:15.198Z,8.82
2023-02-21T23:14:48.215Z,8.85
2023-02-21T23:19:51.191Z,10.10
2023-02-21T23:22:25.228Z,10.00
2023-02-21T23:24:56.172Z,10.30
2023-02-21T23:27:27.273Z,11.48
2023-02-21T23:30:00.652Z,12.13
2023-02-21T23:32:32.002Z,11.00
2023-02-21T23:35:04.161Z,11.10
2023-02-21T23:37:43.055Z,10.27
2023-02-21T23:40:17.737Z,9.98
2023-02-21T23:42:51.849Z,10.70
2023-02-21T23:45:25.200Z,9.95
2023-02-21T23:47:57.395Z,9.35
2023-02-21T23:50:30.683Z,10.65
2023-02-21T23:53:02.542Z,11.52
2023-02-21T23:55:36.881Z,8.82
2023-02-21T23:58:10.907Z,9.07
